sensor_id;sensor_type;location;lat;lon;timestamp;temperature;humidity
28773;DHT22;15925;51.222;5.678;2023-04-25T00:01:31;7.30;99.90
28773;DHT22;15925;51.222;5.678;2023-04-25T00:03:59;7.30;99.90
28773;DHT22;15925;51.222;5.678;2023-04-25T00:06:26;7.30;99.90
28773;DHT22;15925;51.222;5.678;2023-04-25T00:08:52;7.30;99.90
28773;DHT22;15925;51.222;5.678;2023-04-25T00:11:19;7.20;99.90
28773;DHT22;15925;51.222;5.678;2023-04-25T00:13:45;7.30;99.90
28773;DHT22;15925;51.222;5.678;2023-04-25T00:16:12;7.30;99.90
28773;DHT22;15925;51.222;5.678;2023-04-25T00:18:41;7.30;99.90
28773;DHT22;15925;51.222;5.678;2023-04-25T00:21:07;7.30;99.90
28773;DHT22;15925;51.222;5.678;2023-04-25T00:23:33;7.30;99.90
28773;DHT22;15925;51.222;5.678;2023-04-25T00:26:02;7.30;99.90
28773;DHT22;15925;51.222;5.678;2023-04-25T00:28:28;7.40;99.90
28773;DHT22;15925;51.222;5.678;2023-04-25T00:30:54;7.40;99.90
28773;DHT22;15925;51.222;5.678;2023-04-25T00:33:20;7.40;99.90
28773;DHT22;15925;51.222;5.678;2023-04-25T00:35:46;7.40;99.90
28773;DHT22;15925;51.222;5.678;2023-04-25T00:38:12;7.40;99.90
28773;DHT22;15925;51.222;5.678;2023-04-25T00:40:38;7.30;99.90
28773;DHT22;15925;51.222;5.678;2023-04-25T00:43:04;7.30;99.90
28773;DHT22;15925;51.222;5.678;2023-04-25T00:45:30;7.30;99.90
28773;DHT22;15925;51.222;5.678;2023-04-25T00:47:56;7.30;99.90
28773;DHT22;15925;51.222;5.678;2023-04-25T00:50:23;7.20;99.90
28773;DHT22;15925;51.222;5.678;2023-04-25T00:52:49;7.20;99.90
28773;DHT22;15925;51.222;5.678;2023-04-25T00:55:15;7.20;99.90
28773;DHT22;15925;51.222;5.678;2023-04-25T00:57:42;7.20;99.90
28773;DHT22;15925;51.222;5.678;2023-04-25T01:00:08;7.10;99.90
28773;DHT22;15925;51.222;5.678;2023-04-25T01:02:35;7.00;99.90
28773;DHT22;15925;51.222;5.678;2023-04-25T01:05:02;7.10;99.90
28773;DHT22;15925;51.222;5.678;2023-04-25T01:07:28;7.00;99.90
28773;DHT22;15925;51.222;5.678;2023-04-25T01:09:54;7.10;99.90
28773;DHT22;15925;51.222;5.678;2023-04-25T01:12:19;7.10;99.90
28773;DHT22;15925;51.222;5.678;2023-04-25T01:14:46;7.10;99.90
28773;DHT22;15925;51.222;5.678;2023-04-25T01:17:12;7.10;99.90
28773;DHT22;15925;51.222;5.678;2023-04-25T01:19:38;7.00;99.90
28773;DHT22;15925;51.222;5.678;2023-04-25T01:22:04;7.00;99.90
28773;DHT22;15925;51.222;5.678;2023-04-25T01:24:33;7.00;99.90
28773;DHT22;15925;51.222;5.678;2023-04-25T01:27:00;6.90;99.90
28773;DHT22;15925;51.222;5.678;2023-04-25T01:29:27;6.90;99.90
28773;DHT22;15925;51.222;5.678;2023-04-25T01:31:54;6.90;99.90
28773;DHT22;15925;51.222;5.678;2023-04-25T01:34:21;6.90;99.90
28773;DHT22;15925;51.222;5.678;2023-04-25T01:36:50;6.80;99.90
28773;DHT22;15925;51.222;5.678;2023-04-25T01:39:17;6.90;99.90
28773;DHT22;15925;51.222;5.678;2023-04-25T01:41:44;6.90;99.90
28773;DHT22;15925;51.222;5.678;2023-04-25T01:44:10;6.80;99.90
28773;DHT22;15925;51.222;5.678;2023-04-25T01:46:36;6.60;99.90
28773;DHT22;15925;51.222;5.678;2023-04-25T01:49:04;6.60;99.90
28773;DHT22;15925;51.222;5.678;2023-04-25T01:51:30;6.70;99.90
28773;DHT22;15925;51.222;5.678;2023-04-25T01:53:57;6.70;99.90
28773;DHT22;15925;51.222;5.678;2023-04-25T01:56:23;6.60;99.90
28773;DHT22;15925;51.222;5.678;2023-04-25T01:58:51;6.70;99.90
28773;DHT22;15925;51.222;5.678;2023-04-25T02:01:17;6.70;99.90
28773;DHT22;15925;51.222;5.678;2023-04-25T02:03:50;6.70;99.90
28773;DHT22;15925;51.222;5.678;2023-04-25T02:06:25;6.80;99.90
28773;DHT22;15925;51.222;5.678;2023-04-25T02:08:53;6.80;99.90
28773;DHT22;15925;51.222;5.678;2023-04-25T02:11:19;6.80;99.90
28773;DHT22;15925;51.222;5.678;2023-04-25T02:13:53;6.80;99.90
28773;DHT22;15925;51.222;5.678;2023-04-25T02:16:33;6.80;99.90
28773;DHT22;15925;51.222;5.678;2023-04-25T02:19:01;6.80;99.90
28773;DHT22;15925;51.222;5.678;2023-04-25T02:21:29;6.70;99.90
28773;DHT22;15925;51.222;5.678;2023-04-25T02:23:56;6.80;99.90
28773;DHT22;15925;51.222;5.678;2023-04-25T02:26:22;6.70;99.90
28773;DHT22;15925;51.222;5.678;2023-04-25T02:28:50;6.80;99.90
28773;DHT22;15925;51.222;5.678;2023-04-25T02:31:18;6.80;99.90
28773;DHT22;15925;51.222;5.678;2023-04-25T02:33:44;6.80;99.90
28773;DHT22;15925;51.222;5.678;2023-04-25T02:36:10;6.80;99.90
28773;DHT22;15925;51.222;5.678;2023-04-25T02:38:36;6.80;99.90
28773;DHT22;15925;51.222;5.678;2023-04-25T02:41:04;6.80;99.90
28773;DHT22;15925;51.222;5.678;2023-04-25T02:43:29;6.90;99.90
28773;DHT22;15925;51.222;5.678;2023-04-25T02:45:55;6.90;99.90
28773;DHT22;15925;51.222;5.678;2023-04-25T02:48:21;6.90;99.90
28773;DHT22;15925;51.222;5.678;2023-04-25T02:50:48;6.90;99.90
28773;DHT22;15925;51.222;5.678;2023-04-25T02:53:13;6.90;99.90
28773;DHT22;15925;51.222;5.678;2023-04-25T02:55:45;7.00;99.90
28773;DHT22;15925;51.222;5.678;2023-04-25T02:58:11;6.90;99.90
28773;DHT22;15925;51.222;5.678;2023-04-25T03:00:46;6.90;99.90
28773;DHT22;15925;51.222;5.678;2023-04-25T03:03:12;6.90;99.90
28773;DHT22;15925;51.222;5.678;2023-04-25T03:05:38;6.80;99.90
28773;DHT22;15925;51.222;5.678;2023-04-25T03:08:04;6.80;99.90
28773;DHT22;15925;51.222;5.678;2023-04-25T03:10:32;6.70;99.90
28773;DHT22;15925;51.222;5.678;2023-04-25T03:13:02;6.60;99.90
28773;DHT22;15925;51.222;5.678;2023-04-25T03:15:28;6.60;99.90
28773;DHT22;15925;51.222;5.678;2023-04-25T03:17:53;6.60;99.90
28773;DHT22;15925;51.222;5.678;2023-04-25T03:20:19;6.70;99.90
28773;DHT22;15925;51.222;5.678;2023-04-25T03:22:46;6.80;99.90
28773;DHT22;15925;51.222;5.678;2023-04-25T03:25:12;6.80;99.90
28773;DHT22;15925;51.222;5.678;2023-04-25T03:27:37;6.80;99.90
28773;DHT22;15925;51.222;5.678;2023-04-25T03:30:03;6.80;99.90
28773;DHT22;15925;51.222;5.678;2023-04-25T03:32:30;6.80;99.90
28773;DHT22;15925;51.222;5.678;2023-04-25T03:34:55;6.80;99.90
28773;DHT22;15925;51.222;5.678;2023-04-25T03:37:23;6.70;99.90
28773;DHT22;15925;51.222;5.678;2023-04-25T03:39:48;6.80;99.90
28773;DHT22;15925;51.222;5.678;2023-04-25T03:42:15;6.80;99.90
28773;DHT22;15925;51.222;5.678;2023-04-25T03:44:43;6.90;99.90
28773;DHT22;15925;51.222;5.678;2023-04-25T03:47:09;6.90;99.90
28773;DHT22;15925;51.222;5.678;2023-04-25T03:49:35;6.80;99.90
28773;DHT22;15925;51.222;5.678;2023-04-25T03:52:03;6.70;99.90
28773;DHT22;15925;51.222;5.678;2023-04-25T03:54:34;6.70;99.90
28773;DHT22;15925;51.222;5.678;2023-04-25T03:57:13;6.80;99.90
28773;DHT22;15925;51.222;5.678;2023-04-25T03:59:39;6.70;99.90
28773;DHT22;15925;51.222;5.678;2023-04-25T04:02:07;6.70;99.90
28773;DHT22;15925;51.222;5.678;2023-04-25T04:04:35;6.80;99.90
28773;DHT22;15925;51.222;5.678;2023-04-25T04:07:01;6.60;99.90
28773;DHT22;15925;51.222;5.678;2023-04-25T04:09:30;6.70;99.90
28773;DHT22;15925;51.222;5.678;2023-04-25T04:11:58;6.70;99.90
28773;DHT22;15925;51.222;5.678;2023-04-25T04:14:24;6.70;99.90
28773;DHT22;15925;51.222;5.678;2023-04-25T04:16:51;6.70;99.90
28773;DHT22;15925;51.222;5.678;2023-04-25T04:19:17;6.70;99.90
28773;DHT22;15925;51.222;5.678;2023-04-25T04:21:49;6.60;99.90
28773;DHT22;15925;51.222;5.678;2023-04-25T04:24:15;6.60;99.90
28773;DHT22;15925;51.222;5.678;2023-04-25T04:26:56;6.60;99.90
28773;DHT22;15925;51.222;5.678;2023-04-25T04:29:57;6.50;99.90
28773;DHT22;15925;51.222;5.678;2023-04-25T04:32:29;6.60;99.90
28773;DHT22;15925;51.222;5.678;2023-04-25T04:34:56;6.60;99.90
28773;DHT22;15925;51.222;5.678;2023-04-25T04:37:23;6.60;99.90
28773;DHT22;15925;51.222;5.678;2023-04-25T04:39:50;6.60;99.90
28773;DHT22;15925;51.222;5.678;2023-04-25T04:42:36;6.60;99.90
28773;DHT22;15925;51.222;5.678;2023-04-25T04:45:25;6.70;99.90
28773;DHT22;15925;51.222;5.678;2023-04-25T04:48:28;6.70;99.90
28773;DHT22;15925;51.222;5.678;2023-04-25T04:51:22;6.70;99.90
28773;DHT22;15925;51.222;5.678;2023-04-25T04:54:24;6.80;99.90
28773;DHT22;15925;51.222;5.678;2023-04-25T04:57:08;6.80;99.90
28773;DHT22;15925;51.222;5.678;2023-04-25T04:59:54;6.90;99.90
28773;DHT22;15925;51.222;5.678;2023-04-25T05:02:38;6.90;99.90
28773;DHT22;15925;51.222;5.678;2023-04-25T05:05:40;6.90;99.90
28773;DHT22;15925;51.222;5.678;2023-04-25T05:08:29;6.80;99.90
28773;DHT22;15925;51.222;5.678;2023-04-25T05:11:12;6.90;99.90
28773;DHT22;15925;51.222;5.678;2023-04-25T05:13:57;7.00;99.90
28773;DHT22;15925;51.222;5.678;2023-04-25T05:16:42;7.00;99.90
28773;DHT22;15925;51.222;5.678;2023-04-25T05:19:32;7.10;99.90
28773;DHT22;15925;51.222;5.678;2023-04-25T05:22:16;7.10;99.90
28773;DHT22;15925;51.222;5.678;2023-04-25T05:25:00;7.00;99.90
28773;DHT22;15925;51.222;5.678;2023-04-25T05:27:51;7.00;99.90
28773;DHT22;15925;51.222;5.678;2023-04-25T05:30:38;7.00;99.90
28773;DHT22;15925;51.222;5.678;2023-04-25T05:33:24;7.10;99.90
28773;DHT22;15925;51.222;5.678;2023-04-25T05:35:50;7.10;99.90
28773;DHT22;15925;51.222;5.678;2023-04-25T05:38:16;7.10;99.90
28773;DHT22;15925;51.222;5.678;2023-04-25T05:41:05;7.00;99.90
28773;DHT22;15925;51.222;5.678;2023-04-25T05:43:57;7.00;99.90
28773;DHT22;15925;51.222;5.678;2023-04-25T05:46:49;7.10;99.90
28773;DHT22;15925;51.222;5.678;2023-04-25T05:49:15;7.10;99.90
28773;DHT22;15925;51.222;5.678;2023-04-25T05:52:01;7.10;99.90
28773;DHT22;15925;51.222;5.678;2023-04-25T05:54:27;7.10;99.90
28773;DHT22;15925;51.222;5.678;2023-04-25T05:56:56;7.10;99.90
28773;DHT22;15925;51.222;5.678;2023-04-25T05:59:22;7.10;99.90
28773;DHT22;15925;51.222;5.678;2023-04-25T06:01:48;7.10;99.90
28773;DHT22;15925;51.222;5.678;2023-04-25T06:04:14;7.10;99.90
28773;DHT22;15925;51.222;5.678;2023-04-25T06:06:40;7.20;99.90
28773;DHT22;15925;51.222;5.678;2023-04-25T06:09:06;7.20;99.90
28773;DHT22;15925;51.222;5.678;2023-04-25T06:11:32;7.30;99.90
28773;DHT22;15925;51.222;5.678;2023-04-25T06:13:59;7.30;99.90
28773;DHT22;15925;51.222;5.678;2023-04-25T06:16:25;7.40;99.90
28773;DHT22;15925;51.222;5.678;2023-04-25T06:18:51;7.30;99.90
28773;DHT22;15925;51.222;5.678;2023-04-25T06:21:17;7.40;99.90
28773;DHT22;15925;51.222;5.678;2023-04-25T06:23:43;7.50;99.90
28773;DHT22;15925;51.222;5.678;2023-04-25T06:26:11;7.50;99.90
28773;DHT22;15925;51.222;5.678;2023-04-25T06:28:44;7.50;99.90
28773;DHT22;15925;51.222;5.678;2023-04-25T06:31:11;7.50;99.90
28773;DHT22;15925;51.222;5.678;2023-04-25T06:33:37;7.50;99.90
28773;DHT22;15925;51.222;5.678;2023-04-25T06:36:03;7.60;99.90
28773;DHT22;15925;51.222;5.678;2023-04-25T06:38:30;7.60;99.90
28773;DHT22;15925;51.222;5.678;2023-04-25T06:40:57;7.70;99.90
28773;DHT22;15925;51.222;5.678;2023-04-25T06:43:23;7.80;99.90
28773;DHT22;15925;51.222;5.678;2023-04-25T06:46:10;7.80;99.90
28773;DHT22;15925;51.222;5.678;2023-04-25T06:48:42;7.90;99.90
28773;DHT22;15925;51.222;5.678;2023-04-25T06:51:08;7.90;99.90
28773;DHT22;15925;51.222;5.678;2023-04-25T06:53:35;7.90;99.90
28773;DHT22;15925;51.222;5.678;2023-04-25T06:56:04;7.90;99.90
28773;DHT22;15925;51.222;5.678;2023-04-25T06:58:56;8.00;99.90
28773;DHT22;15925;51.222;5.678;2023-04-25T07:01:34;8.00;99.90
28773;DHT22;15925;51.222;5.678;2023-04-25T07:04:04;8.10;99.90
28773;DHT22;15925;51.222;5.678;2023-04-25T07:06:32;8.10;99.90
28773;DHT22;15925;51.222;5.678;2023-04-25T07:08:58;8.20;99.90
28773;DHT22;15925;51.222;5.678;2023-04-25T07:11:24;8.30;99.90
28773;DHT22;15925;51.222;5.678;2023-04-25T07:13:49;8.30;99.90
28773;DHT22;15925;51.222;5.678;2023-04-25T07:16:16;8.40;99.90
28773;DHT22;15925;51.222;5.678;2023-04-25T07:18:42;8.40;99.90
28773;DHT22;15925;51.222;5.678;2023-04-25T07:21:09;8.50;99.90
28773;DHT22;15925;51.222;5.678;2023-04-25T07:23:36;8.50;99.90
28773;DHT22;15925;51.222;5.678;2023-04-25T07:26:09;8.50;99.90
28773;DHT22;15925;51.222;5.678;2023-04-25T07:28:38;8.50;99.90
28773;DHT22;15925;51.222;5.678;2023-04-25T07:31:04;8.40;99.90
28773;DHT22;15925;51.222;5.678;2023-04-25T07:33:31;8.40;99.90
28773;DHT22;15925;51.222;5.678;2023-04-25T07:35:57;8.50;99.90
28773;DHT22;15925;51.222;5.678;2023-04-25T07:38:23;8.50;99.90
28773;DHT22;15925;51.222;5.678;2023-04-25T07:40:49;8.60;99.90
28773;DHT22;15925;51.222;5.678;2023-04-25T07:43:16;8.60;99.90
28773;DHT22;15925;51.222;5.678;2023-04-25T07:45:57;8.60;99.90
28773;DHT22;15925;51.222;5.678;2023-04-25T07:48:24;8.60;99.90
28773;DHT22;15925;51.222;5.678;2023-04-25T07:50:51;8.50;99.90
28773;DHT22;15925;51.222;5.678;2023-04-25T07:53:18;8.60;99.90
28773;DHT22;15925;51.222;5.678;2023-04-25T07:55:50;8.70;99.90
28773;DHT22;15925;51.222;5.678;2023-04-25T07:58:17;8.70;99.90
28773;DHT22;15925;51.222;5.678;2023-04-25T08:00:48;8.80;99.90
28773;DHT22;15925;51.222;5.678;2023-04-25T08:03:37;9.00;99.90
28773;DHT22;15925;51.222;5.678;2023-04-25T08:06:08;9.20;99.90
28773;DHT22;15925;51.222;5.678;2023-04-25T08:08:42;9.30;99.90
28773;DHT22;15925;51.222;5.678;2023-04-25T08:11:12;9.40;99.90
28773;DHT22;15925;51.222;5.678;2023-04-25T08:13:37;9.40;99.90
28773;DHT22;15925;51.222;5.678;2023-04-25T08:16:03;9.40;99.90
28773;DHT22;15925;51.222;5.678;2023-04-25T08:18:29;9.60;99.90
28773;DHT22;15925;51.222;5.678;2023-04-25T08:20:56;9.60;99.90
28773;DHT22;15925;51.222;5.678;2023-04-25T08:23:22;9.80;99.90
28773;DHT22;15925;51.222;5.678;2023-04-25T08:25:58;9.80;99.90
28773;DHT22;15925;51.222;5.678;2023-04-25T08:28:26;9.80;99.90
28773;DHT22;15925;51.222;5.678;2023-04-25T08:30:54;10.00;99.90
28773;DHT22;15925;51.222;5.678;2023-04-25T08:33:21;10.10;99.90
28773;DHT22;15925;51.222;5.678;2023-04-25T08:36:06;10.10;99.90
28773;DHT22;15925;51.222;5.678;2023-04-25T08:38:32;10.10;99.90
28773;DHT22;15925;51.222;5.678;2023-04-25T08:41:00;9.90;99.90
28773;DHT22;15925;51.222;5.678;2023-04-25T08:43:29;9.80;99.90
28773;DHT22;15925;51.222;5.678;2023-04-25T08:46:00;9.90;99.90
28773;DHT22;15925;51.222;5.678;2023-04-25T08:48:34;10.00;99.90
28773;DHT22;15925;51.222;5.678;2023-04-25T08:51:02;9.80;99.90
28773;DHT22;15925;51.222;5.678;2023-04-25T08:53:30;9.90;99.90
28773;DHT22;15925;51.222;5.678;2023-04-25T08:56:00;9.80;99.90
28773;DHT22;15925;51.222;5.678;2023-04-25T08:58:30;9.90;99.90
28773;DHT22;15925;51.222;5.678;2023-04-25T09:00:57;9.80;99.90
28773;DHT22;15925;51.222;5.678;2023-04-25T09:03:26;9.90;99.90
28773;DHT22;15925;51.222;5.678;2023-04-25T09:05:52;10.00;99.90
28773;DHT22;15925;51.222;5.678;2023-04-25T09:08:20;9.80;99.90
28773;DHT22;15925;51.222;5.678;2023-04-25T09:10:47;9.80;99.90
28773;DHT22;15925;51.222;5.678;2023-04-25T09:13:14;9.70;99.90
28773;DHT22;15925;51.222;5.678;2023-04-25T09:16:12;9.70;99.90
28773;DHT22;15925;51.222;5.678;2023-04-25T09:19:05;9.60;99.90
28773;DHT22;15925;51.222;5.678;2023-04-25T09:21:34;9.70;99.90
28773;DHT22;15925;51.222;5.678;2023-04-25T09:24:00;9.70;99.90
28773;DHT22;15925;51.222;5.678;2023-04-25T09:26:26;9.70;99.90
28773;DHT22;15925;51.222;5.678;2023-04-25T09:29:07;9.70;99.90
28773;DHT22;15925;51.222;5.678;2023-04-25T09:31:35;9.60;99.90
28773;DHT22;15925;51.222;5.678;2023-04-25T09:34:03;9.70;99.90
28773;DHT22;15925;51.222;5.678;2023-04-25T09:36:38;9.80;99.90
28773;DHT22;15925;51.222;5.678;2023-04-25T09:39:32;9.70;99.90
28773;DHT22;15925;51.222;5.678;2023-04-25T09:42:09;9.70;99.90
28773;DHT22;15925;51.222;5.678;2023-04-25T09:44:35;9.60;99.90
28773;DHT22;15925;51.222;5.678;2023-04-25T09:47:01;9.70;99.90
28773;DHT22;15925;51.222;5.678;2023-04-25T09:49:29;9.70;99.90
28773;DHT22;15925;51.222;5.678;2023-04-25T09:52:03;9.80;99.90
28773;DHT22;15925;51.222;5.678;2023-04-25T09:54:36;9.80;99.90
28773;DHT22;15925;51.222;5.678;2023-04-25T09:57:22;10.00;99.90
28773;DHT22;15925;51.222;5.678;2023-04-25T09:59:53;10.10;99.90
28773;DHT22;15925;51.222;5.678;2023-04-25T10:02:25;10.30;99.90
28773;DHT22;15925;51.222;5.678;2023-04-25T10:04:55;10.30;99.90
28773;DHT22;15925;51.222;5.678;2023-04-25T10:07:30;10.30;99.90
28773;DHT22;15925;51.222;5.678;2023-04-25T10:10:03;10.40;99.90
28773;DHT22;15925;51.222;5.678;2023-04-25T10:12:30;10.40;99.90
28773;DHT22;15925;51.222;5.678;2023-04-25T10:15:00;10.60;99.90
28773;DHT22;15925;51.222;5.678;2023-04-25T10:17:26;10.60;99.90
28773;DHT22;15925;51.222;5.678;2023-04-25T10:19:55;10.70;99.90
28773;DHT22;15925;51.222;5.678;2023-04-25T10:22:32;10.80;99.90
28773;DHT22;15925;51.222;5.678;2023-04-25T10:25:00;11.10;99.90
28773;DHT22;15925;51.222;5.678;2023-04-25T10:27:30;11.00;99.90
28773;DHT22;15925;51.222;5.678;2023-04-25T10:32:32;11.30;99.90
28773;DHT22;15925;51.222;5.678;2023-04-25T10:35:13;11.30;99.90
28773;DHT22;15925;51.222;5.678;2023-04-25T10:40:29;11.10;99.90
28773;DHT22;15925;51.222;5.678;2023-04-25T10:42:55;11.00;99.90
28773;DHT22;15925;51.222;5.678;2023-04-25T10:45:21;10.90;99.90
28773;DHT22;15925;51.222;5.678;2023-04-25T10:47:47;10.80;99.90
28773;DHT22;15925;51.222;5.678;2023-04-25T10:50:17;10.80;99.90
28773;DHT22;15925;51.222;5.678;2023-04-25T10:52:43;11.10;99.90
28773;DHT22;15925;51.222;5.678;2023-04-25T10:55:10;11.20;99.90
28773;DHT22;15925;51.222;5.678;2023-04-25T10:57:42;11.50;99.90
28773;DHT22;15925;51.222;5.678;2023-04-25T11:00:17;11.40;99.90
28773;DHT22;15925;51.222;5.678;2023-04-25T11:02:46;11.40;99.90
28773;DHT22;15925;51.222;5.678;2023-04-25T11:05:32;11.50;99.90
28773;DHT22;15925;51.222;5.678;2023-04-25T11:07:58;11.30;99.90
28773;DHT22;15925;51.222;5.678;2023-04-25T11:10:32;11.30;99.90
28773;DHT22;15925;51.222;5.678;2023-04-25T11:12:58;11.50;99.90
28773;DHT22;15925;51.222;5.678;2023-04-25T11:15:26;11.70;99.90
28773;DHT22;15925;51.222;5.678;2023-04-25T11:17:52;11.90;99.90
28773;DHT22;15925;51.222;5.678;2023-04-25T11:20:18;12.10;99.90
28773;DHT22;15925;51.222;5.678;2023-04-25T11:22:45;12.20;99.90
28773;DHT22;15925;51.222;5.678;2023-04-25T11:25:13;12.20;99.90
28773;DHT22;15925;51.222;5.678;2023-04-25T11:27:53;12.20;99.90
28773;DHT22;15925;51.222;5.678;2023-04-25T11:30:19;12.20;99.90
28773;DHT22;15925;51.222;5.678;2023-04-25T11:32:46;12.10;99.90
28773;DHT22;15925;51.222;5.678;2023-04-25T11:35:12;12.10;99.90
28773;DHT22;15925;51.222;5.678;2023-04-25T11:37:42;12.10;99.90
28773;DHT22;15925;51.222;5.678;2023-04-25T11:40:09;12.10;99.90
28773;DHT22;15925;51.222;5.678;2023-04-25T11:42:53;12.10;99.90
28773;DHT22;15925;51.222;5.678;2023-04-25T11:45:19;11.70;99.90
28773;DHT22;15925;51.222;5.678;2023-04-25T11:47:45;11.60;99.90
28773;DHT22;15925;51.222;5.678;2023-04-25T11:50:12;11.50;99.90
28773;DHT22;15925;51.222;5.678;2023-04-25T11:52:44;11.70;99.90
28773;DHT22;15925;51.222;5.678;2023-04-25T11:55:18;11.50;99.90
28773;DHT22;15925;51.222;5.678;2023-04-25T11:57:45;11.60;99.90
28773;DHT22;15925;51.222;5.678;2023-04-25T12:00:14;11.50;99.90
28773;DHT22;15925;51.222;5.678;2023-04-25T12:02:44;11.40;99.90
28773;DHT22;15925;51.222;5.678;2023-04-25T12:05:11;11.40;99.90
28773;DHT22;15925;51.222;5.678;2023-04-25T12:07:37;11.40;99.90
28773;DHT22;15925;51.222;5.678;2023-04-25T12:10:11;11.40;99.90
28773;DHT22;15925;51.222;5.678;2023-04-25T12:12:41;11.20;99.90
28773;DHT22;15925;51.222;5.678;2023-04-25T12:17:47;11.20;99.90
28773;DHT22;15925;51.222;5.678;2023-04-25T12:20:15;11.30;99.90
28773;DHT22;15925;51.222;5.678;2023-04-25T12:22:42;11.30;99.90
28773;DHT22;15925;51.222;5.678;2023-04-25T12:25:37;11.40;99.90
28773;DHT22;15925;51.222;5.678;2023-04-25T12:28:19;11.20;99.90
28773;DHT22;15925;51.222;5.678;2023-04-25T12:33:21;10.90;99.90
28773;DHT22;15925;51.222;5.678;2023-04-25T12:35:47;10.80;99.90
28773;DHT22;15925;51.222;5.678;2023-04-25T12:38:29;10.60;99.90
28773;DHT22;15925;51.222;5.678;2023-04-25T12:40:56;10.40;99.90
28773;DHT22;15925;51.222;5.678;2023-04-25T12:43:23;10.30;99.90
28773;DHT22;15925;51.222;5.678;2023-04-25T12:45:50;10.10;99.90
28773;DHT22;15925;51.222;5.678;2023-04-25T12:48:17;10.10;99.90
28773;DHT22;15925;51.222;5.678;2023-04-25T12:50:42;10.20;99.90
28773;DHT22;15925;51.222;5.678;2023-04-25T12:53:09;10.20;99.90
28773;DHT22;15925;51.222;5.678;2023-04-25T12:55:35;10.20;99.90
28773;DHT22;15925;51.222;5.678;2023-04-25T12:58:01;10.40;99.90
28773;DHT22;15925;51.222;5.678;2023-04-25T13:00:27;10.50;99.90
28773;DHT22;15925;51.222;5.678;2023-04-25T13:02:53;10.60;99.90
28773;DHT22;15925;51.222;5.678;2023-04-25T13:05:18;10.70;99.90
28773;DHT22;15925;51.222;5.678;2023-04-25T13:07:44;10.80;99.90
28773;DHT22;15925;51.222;5.678;2023-04-25T13:10:10;11.00;99.90
28773;DHT22;15925;51.222;5.678;2023-04-25T13:12:36;11.10;99.90
28773;DHT22;15925;51.222;5.678;2023-04-25T13:15:02;11.20;99.90
28773;DHT22;15925;51.222;5.678;2023-04-25T13:17:28;11.10;99.90
28773;DHT22;15925;51.222;5.678;2023-04-25T13:19:54;11.30;99.90
28773;DHT22;15925;51.222;5.678;2023-04-25T13:22:20;11.20;99.90
28773;DHT22;15925;51.222;5.678;2023-04-25T13:24:46;11.30;99.90
28773;DHT22;15925;51.222;5.678;2023-04-25T13:27:12;11.50;99.90
28773;DHT22;15925;51.222;5.678;2023-04-25T13:29:38;11.70;99.90
28773;DHT22;15925;51.222;5.678;2023-04-25T13:32:09;11.70;99.90
28773;DHT22;15925;51.222;5.678;2023-04-25T13:34:35;11.80;99.90
28773;DHT22;15925;51.222;5.678;2023-04-25T13:37:01;12.00;99.90
28773;DHT22;15925;51.222;5.678;2023-04-25T13:39:26;12.00;99.90
28773;DHT22;15925;51.222;5.678;2023-04-25T13:41:52;11.80;99.90
28773;DHT22;15925;51.222;5.678;2023-04-25T13:44:18;11.80;99.90
28773;DHT22;15925;51.222;5.678;2023-04-25T13:46:44;11.70;99.90
28773;DHT22;15925;51.222;5.678;2023-04-25T13:49:10;11.60;99.90
28773;DHT22;15925;51.222;5.678;2023-04-25T13:51:36;11.60;99.90
28773;DHT22;15925;51.222;5.678;2023-04-25T13:54:02;11.60;99.90
28773;DHT22;15925;51.222;5.678;2023-04-25T13:56:28;11.50;99.90
28773;DHT22;15925;51.222;5.678;2023-04-25T13:58:54;11.60;99.90
28773;DHT22;15925;51.222;5.678;2023-04-25T14:01:20;11.30;99.90
28773;DHT22;15925;51.222;5.678;2023-04-25T14:03:47;11.20;99.90
28773;DHT22;15925;51.222;5.678;2023-04-25T14:06:14;11.00;99.90
28773;DHT22;15925;51.222;5.678;2023-04-25T14:08:42;10.90;99.90
28773;DHT22;15925;51.222;5.678;2023-04-25T14:11:08;11.00;99.90
28773;DHT22;15925;51.222;5.678;2023-04-25T14:13:34;10.90;99.90
28773;DHT22;15925;51.222;5.678;2023-04-25T14:16:00;10.80;99.90
28773;DHT22;15925;51.222;5.678;2023-04-25T14:18:26;10.80;99.90
28773;DHT22;15925;51.222;5.678;2023-04-25T14:20:52;10.80;99.90
28773;DHT22;15925;51.222;5.678;2023-04-25T14:23:18;10.90;99.90
28773;DHT22;15925;51.222;5.678;2023-04-25T14:25:44;10.90;99.90
28773;DHT22;15925;51.222;5.678;2023-04-25T14:28:10;10.80;99.90
28773;DHT22;15925;51.222;5.678;2023-04-25T14:30:36;10.80;99.90
28773;DHT22;15925;51.222;5.678;2023-04-25T14:33:02;10.80;99.90
28773;DHT22;15925;51.222;5.678;2023-04-25T14:35:28;10.90;99.90
28773;DHT22;15925;51.222;5.678;2023-04-25T14:37:54;11.10;99.90
28773;DHT22;15925;51.222;5.678;2023-04-25T14:40:19;11.20;99.90
28773;DHT22;15925;51.222;5.678;2023-04-25T14:42:48;11.30;99.90
28773;DHT22;15925;51.222;5.678;2023-04-25T14:45:15;11.50;99.90
28773;DHT22;15925;51.222;5.678;2023-04-25T14:47:41;11.50;99.90
28773;DHT22;15925;51.222;5.678;2023-04-25T14:50:07;11.70;99.90
28773;DHT22;15925;51.222;5.678;2023-04-25T14:52:34;11.70;99.90
28773;DHT22;15925;51.222;5.678;2023-04-25T14:55:00;11.60;99.90
28773;DHT22;15925;51.222;5.678;2023-04-25T14:57:31;11.50;99.90
28773;DHT22;15925;51.222;5.678;2023-04-25T14:59:57;11.50;99.90
28773;DHT22;15925;51.222;5.678;2023-04-25T15:02:24;11.50;99.90
28773;DHT22;15925;51.222;5.678;2023-04-25T15:04:49;11.50;99.90
28773;DHT22;15925;51.222;5.678;2023-04-25T15:07:15;11.60;99.90
28773;DHT22;15925;51.222;5.678;2023-04-25T15:09:41;11.70;99.90
28773;DHT22;15925;51.222;5.678;2023-04-25T15:12:07;11.90;99.90
28773;DHT22;15925;51.222;5.678;2023-04-25T15:14:33;12.10;99.90
28773;DHT22;15925;51.222;5.678;2023-04-25T15:17:00;11.90;99.90
28773;DHT22;15925;51.222;5.678;2023-04-25T15:19:26;12.00;99.90
28773;DHT22;15925;51.222;5.678;2023-04-25T15:21:52;12.10;99.90
28773;DHT22;15925;51.222;5.678;2023-04-25T15:24:18;12.10;99.90
28773;DHT22;15925;51.222;5.678;2023-04-25T15:26:44;11.90;99.90
28773;DHT22;15925;51.222;5.678;2023-04-25T15:29:11;11.70;99.90
28773;DHT22;15925;51.222;5.678;2023-04-25T15:31:37;11.80;99.90
28773;DHT22;15925;51.222;5.678;2023-04-25T15:34:03;11.90;99.90
28773;DHT22;15925;51.222;5.678;2023-04-25T15:36:29;11.70;99.90
28773;DHT22;15925;51.222;5.678;2023-04-25T15:38:56;11.50;99.90
28773;DHT22;15925;51.222;5.678;2023-04-25T15:41:23;11.40;99.90
28773;DHT22;15925;51.222;5.678;2023-04-25T15:43:50;11.20;99.90
28773;DHT22;15925;51.222;5.678;2023-04-25T15:46:17;11.30;99.90
28773;DHT22;15925;51.222;5.678;2023-04-25T15:48:43;11.30;99.90
28773;DHT22;15925;51.222;5.678;2023-04-25T15:51:09;11.20;99.90
28773;DHT22;15925;51.222;5.678;2023-04-25T15:53:35;11.00;99.90
28773;DHT22;15925;51.222;5.678;2023-04-25T15:56:00;11.20;99.90
28773;DHT22;15925;51.222;5.678;2023-04-25T15:58:26;11.20;99.90
28773;DHT22;15925;51.222;5.678;2023-04-25T16:00:52;11.20;99.90
28773;DHT22;15925;51.222;5.678;2023-04-25T16:03:20;11.20;99.90
28773;DHT22;15925;51.222;5.678;2023-04-25T16:05:46;11.30;99.90